createdAt,value
2022-11-05T00:01:19.817Z,10.57
2022-11-05T00:04:01.920Z,9.23
2022-11-05T00:06:43.902Z,11.85
2022-11-05T00:09:26.707Z,12.38
2022-11-05T00:12:08.482Z,15.73
2022-11-05T00:14:50.330Z,8.70
2022-11-05T00:17:16.953Z,8.43
2022-11-05T00:19:43.666Z,9.77
2022-11-05T00:22:25.472Z,9.30
2022-11-05T00:25:07.246Z,9.38
2022-11-05T00:27:34.362Z,9.68
2022-11-05T00:30:01.041Z,9.90
2022-11-05T00:32:27.619Z,7.32
2022-11-05T00:34:54.246Z,8.23
2022-11-05T00:37:20.842Z,8.07
2022-11-05T00:39:47.478Z,8.98
2022-11-05T00:42:29.424Z,9.15
2022-11-05T00:45:03.448Z,8.43
2022-11-05T00:47:47.104Z,7.68
2022-11-05T00:50:14.235Z,7.35
2022-11-05T00:52:56.112Z,6.22
2022-11-05T00:55:24.206Z,8.43
2022-11-05T00:57:51.197Z,7.55
2022-11-05T01:00:18.348Z,6.80
2022-11-05T01:02:45.143Z,8.25
2022-11-05T01:05:12.093Z,7.68
2022-11-05T01:07:38.669Z,10.55
2022-11-05T01:10:05.893Z,11.43
2022-11-05T01:12:32.557Z,6.13
2022-11-05T01:14:59.510Z,9.85
2022-11-05T01:17:26.092Z,6.82
2022-11-05T01:19:52.727Z,7.03
2022-11-05T01:22:19.364Z,10.20
2022-11-05T01:24:46.071Z,9.48
2022-11-05T01:27:12.699Z,6.53
2022-11-05T01:29:39.299Z,8.30
2022-11-05T01:32:06.219Z,9.20
2022-11-05T01:34:32.835Z,6.20
2022-11-05T01:36:59.526Z,6.40
2022-11-05T01:39:26.177Z,8.07
2022-11-05T01:41:52.878Z,7.05
2022-11-05T01:44:49.930Z,5.80
2022-11-05T01:47:38.889Z,6.15
2022-11-05T01:50:17.612Z,7.53
2022-11-05T01:52:44.399Z,7.38
2022-11-05T01:55:13.480Z,7.30
2022-11-05T01:57:40.706Z,13.30
2022-11-05T02:00:07.820Z,6.75
2022-11-05T02:02:34.519Z,6.72
2022-11-05T02:05:05.250Z,9.05
2022-11-05T02:07:33.115Z,9.02
2022-11-05T02:10:10.020Z,9.10
2022-11-05T02:12:39.451Z,10.05
2022-11-05T02:15:06.835Z,5.60
2022-11-05T02:17:57.883Z,7.07
2022-11-05T02:20:26.519Z,9.85
2022-11-05T02:23:20.497Z,6.93
2022-11-05T02:25:59.899Z,7.07
2022-11-05T02:28:36.923Z,10.55
2022-11-05T02:31:06.688Z,7.25
2022-11-05T02:33:47.126Z,9.27
2022-11-05T02:36:15.739Z,8.93
2022-11-05T02:39:00.715Z,8.40
2022-11-05T02:41:54.441Z,9.63
2022-11-05T02:44:47.716Z,8.50
2022-11-05T02:47:42.827Z,9.50
2022-11-05T02:50:43.100Z,11.88
2022-11-05T02:53:17.052Z,11.25
2022-11-05T02:56:10.166Z,12.77
2022-11-05T02:58:39.864Z,13.02
2022-11-05T03:01:07.157Z,18.20
2022-11-05T03:03:38.997Z,10.50
2022-11-05T03:06:21.852Z,10.77
2022-11-05T03:08:50.490Z,9.80
2022-11-05T03:11:20.670Z,11.70
2022-11-05T03:13:57.618Z,10.45
2022-11-05T03:16:36.514Z,17.40
2022-11-05T03:19:04.127Z,11.98
2022-11-05T03:21:53.602Z,13.60
2022-11-05T03:24:26.908Z,10.70
2022-11-05T03:26:57.062Z,14.50
2022-11-05T03:29:28.257Z,11.07
2022-11-05T03:31:57.649Z,10.82
2022-11-05T03:34:31.889Z,18.00
2022-11-05T03:37:00.633Z,15.38
2022-11-05T03:39:36.086Z,13.38
2022-11-05T03:42:06.596Z,14.47
2022-11-05T03:44:39.354Z,13.23
2022-11-05T03:47:14.992Z,12.88
2022-11-05T03:49:57.814Z,12.10
2022-11-05T03:52:30.158Z,18.27
2022-11-05T03:54:56.941Z,13.10
2022-11-05T03:57:30.026Z,12.77
2022-11-05T03:59:59.944Z,14.20
2022-11-05T04:02:27.622Z,12.32
2022-11-05T04:04:55.040Z,12.05
2022-11-05T04:07:36.886Z,12.65
2022-11-05T04:10:19.203Z,15.25
2022-11-05T04:13:01.388Z,11.75
2022-11-05T04:15:29.780Z,13.30
2022-11-05T04:17:58.925Z,11.98
2022-11-05T04:20:41.785Z,12.10
2022-11-05T04:23:25.079Z,11.48
2022-11-05T04:25:51.936Z,13.80
2022-11-05T04:28:19.331Z,11.68
2022-11-05T04:30:45.967Z,12.23
2022-11-05T04:33:16.286Z,13.40
2022-11-05T04:35:46.860Z,12.77
2022-11-05T04:38:15.906Z,13.80
2022-11-05T04:40:43.445Z,15.40
2022-11-05T04:43:15.322Z,14.30
2022-11-05T04:45:42.631Z,12.88
2022-11-05T04:48:09.398Z,14.95
2022-11-05T04:50:36.259Z,13.70
2022-11-05T04:53:03.411Z,12.77
2022-11-05T04:55:30.143Z,12.68
2022-11-05T04:57:57.014Z,11.00
2022-11-05T05:00:24.721Z,14.25
2022-11-05T05:02:51.660Z,16.38
2022-11-05T05:05:18.484Z,15.27
2022-11-05T05:07:45.138Z,14.20
2022-11-05T05:10:12.603Z,14.95
2022-11-05T05:12:39.287Z,15.63
2022-11-05T05:15:06.474Z,18.98
2022-11-05T05:17:33.104Z,15.25
2022-11-05T05:20:15.025Z,15.55
2022-11-05T05:22:41.635Z,14.80
2022-11-05T05:25:08.473Z,17.10
2022-11-05T05:27:35.174Z,13.05
2022-11-05T05:30:02.011Z,15.18
2022-11-05T05:32:28.615Z,14.82
2022-11-05T05:34:55.258Z,13.68
2022-11-05T05:37:21.921Z,13.50
2022-11-05T05:39:48.613Z,15.95
2022-11-05T05:42:15.614Z,16.02
2022-11-05T05:44:42.566Z,14.43
2022-11-05T05:47:09.482Z,12.98
2022-11-05T05:49:36.097Z,10.10
2022-11-05T05:52:03.078Z,11.95
2022-11-05T05:54:33.408Z,13.35
2022-11-05T05:57:00.911Z,12.13
2022-11-05T05:59:27.556Z,14.93
2022-11-05T06:01:54.294Z,12.90
2022-11-05T06:04:21.097Z,13.85
2022-11-05T06:06:48.290Z,11.90
2022-11-05T06:09:15.131Z,13.80
2022-11-05T06:11:42.184Z,15.93
2022-11-05T06:14:11.558Z,12.77
2022-11-05T06:16:39.281Z,13.73
2022-11-05T06:19:06.820Z,10.80
2022-11-05T06:21:33.441Z,13.43
2022-11-05T06:24:01.070Z,9.80
2022-11-05T06:26:28.244Z,12.75
2022-11-05T06:28:57.563Z,10.95
2022-11-05T06:31:24.495Z,10.27
2022-11-05T06:33:51.138Z,10.75
2022-11-05T06:36:19.344Z,10.73
2022-11-05T06:38:46.272Z,12.43
2022-11-05T06:41:13.074Z,11.00
2022-11-05T06:43:39.768Z,17.10
2022-11-05T06:46:06.965Z,14.10
2022-11-05T06:48:34.255Z,10.50
2022-11-05T06:51:01.050Z,11.48
2022-11-05T06:53:27.783Z,12.07
2022-11-05T06:55:54.460Z,15.88
2022-11-05T06:58:21.297Z,16.20
2022-11-05T07:00:48.532Z,13.70
2022-11-05T07:03:15.451Z,10.88
2022-11-05T07:05:47.921Z,13.35
2022-11-05T07:08:15.013Z,13.40
2022-11-05T07:10:41.623Z,12.73
2022-11-05T07:13:08.971Z,14.70
2022-11-05T07:15:36.810Z,13.75
2022-11-05T07:18:05.185Z,13.98
2022-11-05T07:20:34.337Z,14.07
2022-11-05T07:23:05.433Z,14.27
2022-11-05T07:25:34.714Z,19.48
2022-11-05T07:28:02.299Z,21.85
2022-11-05T07:30:30.917Z,15.57
2022-11-05T07:32:57.772Z,20.58
2022-11-05T07:35:24.755Z,20.73
2022-11-05T07:37:54.683Z,16.75
2022-11-05T07:40:23.248Z,19.02
2022-11-05T07:42:52.405Z,15.85
2022-11-05T07:45:19.642Z,16.20
2022-11-05T07:47:51.920Z,15.88
2022-11-05T07:50:20.218Z,15.73
2022-11-05T07:52:48.692Z,18.13
2022-11-05T07:55:16.529Z,18.00
2022-11-05T07:57:45.229Z,13.90
2022-11-05T08:00:17.464Z,13.00
2022-11-05T08:02:44.565Z,13.43
2022-11-05T08:05:11.386Z,14.43
2022-11-05T08:07:38.142Z,15.07
2022-11-05T08:10:05.118Z,15.40
2022-11-05T08:12:32.405Z,14.98
2022-11-05T08:14:59.163Z,26.08
2022-11-05T08:17:25.831Z,15.15
2022-11-05T08:19:52.615Z,14.15
2022-11-05T08:22:19.224Z,18.48
2022-11-05T08:24:45.891Z,12.82
2022-11-05T08:27:12.573Z,14.75
2022-11-05T08:29:39.237Z,16.63
2022-11-05T08:32:05.966Z,13.55
2022-11-05T08:34:32.627Z,15.25
2022-11-05T08:37:01.384Z,15.27
2022-11-05T08:39:28.328Z,15.15
2022-11-05T08:41:55.190Z,24.45
2022-11-05T08:44:22.199Z,24.20
2022-11-05T08:46:49.644Z,19.10
2022-11-05T08:49:16.794Z,19.17
2022-11-05T08:51:44.990Z,22.38
2022-11-05T08:54:12.081Z,21.70
2022-11-05T08:56:38.844Z,21.55
2022-11-05T08:59:05.930Z,22.58
2022-11-05T09:01:34.183Z,20.20
2022-11-05T09:04:00.954Z,24.50
2022-11-05T09:06:27.872Z,19.55
2022-11-05T09:08:54.841Z,25.73
2022-11-05T09:11:21.607Z,24.05
2022-11-05T09:13:48.368Z,24.02
2022-11-05T09:16:18.899Z,21.80
2022-11-05T09:18:45.470Z,24.52
2022-11-05T09:21:12.085Z,19.05
2022-11-05T09:23:39.234Z,20.80
2022-11-05T09:26:06.043Z,20.63
2022-11-05T09:28:33.281Z,18.67
2022-11-05T09:31:00.584Z,21.67
2022-11-05T09:33:28.050Z,19.33
2022-11-05T09:35:54.744Z,19.25
2022-11-05T09:38:21.683Z,18.23
2022-11-05T09:40:57.317Z,22.50
2022-11-05T09:43:41.625Z,20.83
2022-11-05T09:46:16.535Z,19.20
2022-11-05T09:48:47.932Z,19.27
2022-11-05T09:51:22.393Z,19.65
2022-11-05T09:53:50.849Z,19.05
2022-11-05T09:56:21.193Z,20.13
2022-11-05T09:58:53.095Z,21.92
2022-11-05T10:01:25.339Z,18.75
2022-11-05T10:03:56.906Z,19.73
2022-11-05T10:06:27.290Z,22.13
2022-11-05T10:09:02.096Z,20.65
2022-11-05T10:11:36.261Z,21.27
2022-11-05T10:14:14.132Z,22.75
2022-11-05T10:16:44.080Z,24.92
2022-11-05T10:19:22.175Z,21.40
2022-11-05T10:24:35.421Z,19.25
2022-11-05T10:27:02.845Z,18.42
2022-11-05T10:29:33.044Z,19.40
2022-11-05T10:32:03.473Z,21.33
2022-11-05T10:34:34.200Z,19.83
2022-11-05T10:37:01.440Z,21.73
2022-11-05T10:39:31.328Z,23.10
2022-11-05T10:42:14.303Z,22.25
2022-11-05T10:44:48.562Z,19.17
2022-11-05T10:47:30.617Z,21.23
2022-11-05T10:50:00.117Z,17.35
2022-11-05T10:52:33.954Z,19.50
2022-11-05T10:55:04.399Z,20.95
2022-11-05T10:57:31.976Z,17.42
2022-11-05T11:00:14.825Z,18.98
2022-11-05T11:02:43.357Z,17.88
2022-11-05T11:05:18.894Z,23.75
2022-11-05T11:07:55.825Z,19.17
2022-11-05T11:10:23.861Z,16.48
2022-11-05T11:12:51.474Z,17.23
2022-11-05T11:15:27.375Z,19.55
2022-11-05T11:17:56.134Z,15.77
2022-11-05T11:20:22.866Z,16.20
2022-11-05T11:23:04.809Z,16.83
2022-11-05T11:25:51.031Z,15.18
2022-11-05T11:28:23.922Z,15.30
2022-11-05T11:31:07.975Z,14.18
2022-11-05T11:33:37.599Z,11.85
2022-11-05T11:36:06.368Z,13.77
2022-11-05T11:38:37.644Z,14.43
2022-11-05T11:41:16.933Z,13.43
2022-11-05T11:43:45.028Z,15.57
2022-11-05T11:46:16.390Z,14.48
2022-11-05T11:48:48.266Z,14.85
2022-11-05T11:51:20.179Z,20.25
2022-11-05T11:53:48.975Z,19.00
2022-11-05T11:56:20.589Z,14.90
2022-11-05T11:58:50.266Z,21.15
2022-11-05T12:01:20.148Z,19.92
2022-11-05T12:03:54.462Z,18.02
2022-11-05T12:06:26.891Z,18.42
2022-11-05T12:09:15.791Z,17.52
2022-11-05T12:12:02.456Z,13.35
2022-11-05T12:14:57.909Z,18.80
2022-11-05T12:17:28.581Z,17.35
2022-11-05T12:20:16.771Z,19.67
2022-11-05T12:22:58.603Z,16.83
2022-11-05T12:25:29.011Z,20.55
2022-11-05T12:28:24.543Z,23.20
2022-11-05T12:30:59.894Z,17.50
2022-11-05T12:33:42.300Z,20.07
2022-11-05T12:36:17.762Z,22.55
2022-11-05T12:39:00.743Z,17.67
2022-11-05T12:41:38.746Z,18.70
2022-11-05T12:44:26.046Z,20.35
2022-11-05T12:47:25.337Z,17.52
2022-11-05T12:50:15.333Z,16.02
2022-11-05T12:52:57.261Z,17.40
2022-11-05T12:55:28.860Z,18.33
2022-11-05T12:58:03.751Z,15.88
2022-11-05T13:00:30.798Z,15.30
2022-11-05T13:03:07.602Z,18.20
2022-11-05T13:05:38.411Z,13.48
2022-11-05T13:08:10.140Z,14.18
2022-11-05T13:10:45.956Z,10.35
2022-11-05T13:13:23.269Z,13.63
2022-11-05T13:15:54.038Z,12.52
2022-11-05T13:18:27.419Z,14.02
2022-11-05T13:20:56.433Z,13.32
2022-11-05T13:23:35.239Z,16.30
2022-11-05T13:26:15.617Z,21.02
2022-11-05T13:28:54.295Z,20.50
2022-11-05T13:31:27.754Z,13.45
2022-11-05T13:33:55.278Z,15.52
2022-11-05T13:36:42.701Z,16.20
2022-11-05T13:39:27.669Z,13.25
2022-11-05T13:42:24.476Z,14.45
2022-11-05T13:45:21.656Z,17.10
2022-11-05T13:48:09.227Z,15.10
2022-11-05T13:51:11.007Z,12.88
2022-11-05T13:53:53.076Z,14.52
2022-11-05T13:56:20.688Z,12.15
2022-11-05T13:59:17.530Z,15.55
2022-11-05T14:01:55.668Z,17.38
2022-11-05T14:04:45.138Z,19.48
2022-11-05T14:07:31.374Z,13.20
2022-11-05T14:09:59.658Z,14.50
2022-11-05T14:12:26.342Z,17.27
2022-11-05T14:14:59.948Z,18.17
2022-11-05T14:17:57.221Z,13.90
2022-11-05T14:20:44.782Z,14.10
2022-11-05T14:23:27.868Z,14.40
2022-11-05T14:25:56.295Z,13.43
2022-11-05T14:28:40.125Z,15.40
2022-11-05T14:31:40.981Z,13.13
2022-11-05T14:34:10.058Z,21.08
2022-11-05T14:36:38.461Z,17.35
2022-11-05T14:39:23.901Z,17.33
2022-11-05T14:41:54.069Z,21.75
2022-11-05T14:44:21.328Z,17.35
2022-11-05T14:46:50.647Z,16.15
2022-11-05T14:49:23.573Z,17.70
2022-11-05T14:51:54.105Z,16.02
2022-11-05T14:54:40.376Z,16.15
2022-11-05T14:57:11.109Z,15.98
2022-11-05T14:59:57.575Z,19.92
2022-11-05T15:02:32.555Z,19.17
2022-11-05T15:05:34.507Z,21.63
2022-11-05T15:08:27.890Z,15.57
2022-11-05T15:11:02.234Z,20.13
2022-11-05T15:13:34.385Z,17.35
2022-11-05T15:16:03.945Z,17.73
2022-11-05T15:18:36.879Z,14.35
2022-11-05T15:21:08.674Z,15.88
2022-11-05T15:23:41.073Z,26.77
2022-11-05T15:26:12.690Z,16.77
2022-11-05T15:28:45.845Z,16.23
2022-11-05T15:31:12.450Z,13.65
2022-11-05T15:33:41.941Z,16.42
2022-11-05T15:36:22.365Z,15.43
2022-11-05T15:39:08.493Z,22.55
2022-11-05T15:41:36.164Z,15.48
2022-11-05T15:44:03.117Z,12.98
2022-11-05T15:46:30.205Z,15.27
2022-11-05T15:49:06.602Z,26.65
2022-11-05T15:56:52.180Z,13.38
2022-11-05T15:59:21.913Z,15.30
2022-11-05T16:01:56.646Z,16.45
2022-11-05T16:04:28.518Z,19.27
2022-11-05T16:06:59.739Z,17.27
2022-11-05T16:09:27.982Z,19.20
2022-11-05T16:12:25.287Z,20.80
2022-11-05T16:17:31.535Z,14.57
2022-11-05T16:19:58.381Z,20.38
2022-11-05T16:22:25.175Z,14.88
2022-11-05T16:24:51.793Z,17.00
2022-11-05T16:27:22.044Z,13.18
2022-11-05T16:29:52.058Z,18.65
2022-11-05T16:32:29.841Z,16.15
2022-11-05T16:35:00.258Z,16.02
2022-11-05T16:37:33.191Z,18.50
2022-11-05T16:39:59.787Z,15.90
2022-11-05T16:42:37.926Z,14.48
2022-11-05T16:45:05.954Z,17.42
2022-11-05T16:47:32.706Z,17.13
2022-11-05T16:49:59.295Z,17.10
2022-11-05T16:52:25.993Z,17.73
2022-11-05T16:54:53.703Z,17.25
2022-11-05T16:57:31.006Z,14.68
2022-11-05T16:59:59.703Z,17.92
2022-11-05T17:02:26.985Z,15.02
2022-11-05T17:04:53.673Z,15.50
2022-11-05T17:07:20.314Z,15.55
2022-11-05T17:09:46.913Z,16.17
2022-11-05T17:12:14.394Z,14.73
2022-11-05T17:14:41.003Z,14.93
2022-11-05T17:17:07.656Z,19.58
2022-11-05T17:19:34.379Z,18.67
2022-11-05T17:22:00.970Z,26.55
2022-11-05T17:24:27.569Z,29.58
2022-11-05T17:26:54.721Z,34.05
2022-11-05T17:29:21.447Z,22.85
2022-11-05T17:31:48.987Z,20.55
2022-11-05T17:34:15.770Z,25.38
2022-11-05T17:36:42.596Z,21.48
2022-11-05T17:39:10.952Z,18.20
2022-11-05T17:41:37.780Z,19.30
2022-11-05T17:44:04.446Z,23.33
2022-11-05T17:46:31.090Z,24.20
2022-11-05T17:48:57.678Z,20.55
2022-11-05T17:51:24.238Z,25.08
2022-11-05T17:53:51.039Z,25.20
2022-11-05T17:56:32.258Z,29.45
2022-11-05T17:59:00.886Z,24.02
2022-11-05T18:01:30.575Z,22.95
2022-11-05T18:03:57.657Z,20.75
2022-11-05T18:06:24.465Z,23.10
2022-11-05T18:08:51.224Z,22.50
2022-11-05T18:11:17.852Z,22.48
2022-11-05T18:13:44.464Z,21.67
2022-11-05T18:16:11.024Z,24.55
2022-11-05T18:18:37.619Z,21.50
2022-11-05T18:21:04.261Z,21.58
2022-11-05T18:23:30.870Z,27.05
2022-11-05T18:25:57.829Z,28.35
2022-11-05T18:28:24.580Z,28.05
2022-11-05T18:30:51.382Z,28.85
2022-11-05T18:33:17.988Z,29.30
2022-11-05T18:35:44.849Z,27.73
2022-11-05T18:38:12.071Z,20.08
2022-11-05T18:40:38.725Z,22.52
2022-11-05T18:43:05.345Z,22.05
2022-11-05T18:45:33.858Z,22.75
2022-11-05T18:48:02.045Z,23.65
2022-11-05T18:50:29.360Z,31.35
2022-11-05T18:52:56.414Z,32.92
2022-11-05T18:55:24.724Z,24.98
2022-11-05T18:57:51.442Z,23.92
2022-11-05T19:00:18.328Z,28.73
2022-11-05T19:02:45.088Z,26.40
2022-11-05T19:05:28.433Z,26.25
2022-11-05T19:07:55.852Z,27.25
2022-11-05T19:10:22.677Z,27.27
2022-11-05T19:12:49.409Z,25.98
2022-11-05T19:15:16.005Z,25.05
2022-11-05T19:17:42.997Z,25.60
2022-11-05T19:20:10.132Z,23.58
2022-11-05T19:22:36.789Z,25.73
2022-11-05T19:25:03.997Z,31.15
2022-11-05T19:27:30.639Z,30.92
2022-11-05T19:29:57.330Z,31.77
2022-11-05T19:32:24.544Z,27.80
2022-11-05T19:34:51.113Z,33.50
2022-11-05T19:37:17.695Z,26.83
2022-11-05T19:39:44.860Z,27.75
2022-11-05T19:42:11.613Z,31.88
2022-11-05T19:44:38.350Z,29.73
2022-11-05T19:47:04.993Z,29.70
2022-11-05T19:49:34.792Z,29.05
2022-11-05T19:52:01.395Z,33.85
2022-11-05T19:54:28.001Z,22.95
2022-11-05T19:56:54.596Z,24.63
2022-11-05T19:59:21.215Z,28.70
2022-11-05T20:01:47.898Z,27.05
2022-11-05T20:04:17.795Z,27.23
2022-11-05T20:06:44.557Z,29.38
2022-11-05T20:09:21.595Z,24.13
2022-11-05T20:11:49.909Z,27.77
2022-11-05T20:14:17.183Z,28.27
2022-11-05T20:16:45.941Z,26.17
2022-11-05T20:19:16.232Z,30.48
2022-11-05T20:21:43.225Z,33.67
2022-11-05T20:24:12.355Z,32.95
2022-11-05T20:26:39.614Z,33.92
2022-11-05T20:29:06.460Z,35.67
2022-11-05T20:31:33.073Z,32.15
2022-11-05T20:33:59.754Z,34.75
2022-11-05T20:36:26.714Z,33.10
2022-11-05T20:38:56.573Z,38.97
2022-11-05T20:41:24.231Z,35.42
2022-11-05T20:43:51.646Z,43.50
2022-11-05T20:46:20.178Z,45.42
2022-11-05T20:48:47.198Z,40.55
2022-11-05T20:51:17.077Z,33.88
2022-11-05T20:53:44.149Z,33.53
2022-11-05T20:56:20.570Z,34.25
2022-11-05T20:58:48.765Z,34.35
2022-11-05T21:01:16.638Z,30.42
2022-11-05T21:03:44.865Z,33.33
2022-11-05T21:06:12.083Z,29.63
2022-11-05T21:08:39.200Z,29.73
2022-11-05T21:11:06.854Z,32.28
2022-11-05T21:13:34.059Z,30.48
2022-11-05T21:16:01.412Z,29.52
2022-11-05T21:18:31.418Z,29.08
2022-11-05T21:21:00.428Z,30.27
2022-11-05T21:23:28.605Z,31.70
2022-11-05T21:25:55.508Z,31.17
2022-11-05T21:28:22.263Z,31.73
2022-11-05T21:30:49.168Z,31.83
2022-11-05T21:33:17.773Z,30.65
2022-11-05T21:35:46.664Z,33.85
2022-11-05T21:38:15.713Z,99.88
2022-11-05T21:40:43.023Z,97.22
2022-11-05T21:43:10.277Z,61.47
2022-11-05T21:45:39.879Z,49.95
2022-11-05T21:48:07.432Z,43.72
2022-11-05T21:50:49.528Z,32.70
2022-11-05T21:53:33.024Z,35.22
2022-11-05T21:56:15.120Z,33.08
2022-11-05T21:58:56.942Z,27.48
2022-11-05T22:01:23.973Z,28.05
2022-11-05T22:03:50.645Z,27.25
2022-11-05T22:06:17.407Z,32.45
2022-11-05T22:08:44.142Z,135.50
2022-11-05T22:11:10.705Z,46.45
2022-11-05T22:13:37.286Z,37.58
2022-11-05T22:16:04.040Z,33.70
2022-11-05T22:18:30.617Z,29.88
2022-11-05T22:20:57.165Z,30.30
2022-11-05T22:23:23.719Z,30.40
2022-11-05T22:25:50.453Z,31.83
2022-11-05T22:28:17.050Z,28.95
2022-11-05T22:30:43.666Z,29.88
2022-11-05T22:33:10.646Z,26.00
2022-11-05T22:35:39.345Z,28.70
2022-11-05T22:38:18.658Z,26.90
2022-11-05T22:40:45.227Z,23.55
2022-11-05T22:43:11.868Z,26.55
2022-11-05T22:45:38.495Z,27.70
2022-11-05T22:48:06.982Z,27.40
2022-11-05T22:50:33.883Z,25.27
2022-11-05T22:53:00.496Z,29.17
2022-11-05T22:55:27.110Z,31.15
2022-11-05T22:57:53.849Z,25.58
2022-11-05T23:00:20.509Z,29.23
2022-11-05T23:02:47.303Z,25.30
2022-11-05T23:05:16.097Z,27.23
2022-11-05T23:07:57.994Z,29.60
2022-11-05T23:10:40.038Z,25.00
2022-11-05T23:13:07.976Z,27.95
2022-11-05T23:15:49.760Z,25.60
2022-11-05T23:18:31.650Z,22.27
2022-11-05T23:21:13.664Z,26.13
2022-11-05T23:23:55.696Z,21.48
2022-11-05T23:26:37.486Z,27.95
2022-11-05T23:29:04.381Z,27.50
2022-11-05T23:31:46.239Z,27.92
2022-11-05T23:34:12.780Z,31.67
2022-11-05T23:36:54.703Z,23.55
2022-11-05T23:39:21.348Z,22.67
2022-11-05T23:42:03.174Z,25.05
2022-11-05T23:44:44.969Z,24.70
2022-11-05T23:47:26.752Z,24.17
2022-11-05T23:49:56.544Z,24.08
2022-11-05T23:52:23.310Z,23.63
2022-11-05T23:54:49.897Z,25.63
2022-11-05T23:57:16.451Z,24.35
2022-11-05T23:59:43.045Z,26.13
